Time;durP1;ratioP1;P1;durP2;ratioP2;P2;SDS_P1;SDS_P2;PMS_P1;PMS_P2;Temp;Humidity;BMP_temperature;BMP_pressure;BME280_temperature;BME280_humidity;BME280_pressure;Samples;Min_cycle;Max_cycle;Signal;HPM_P1;HPM_P2
2021/07/13 00:02:21;;;;;;;0.03;0.03;;;;;;;28.75;41.14;100234.97;5031206;28;20041;-58
2021/07/13 00:04:48;;;;;;;0.10;0.10;;;;;;;28.74;41.15;100233.28;5031307;28;20041;-58
2021/07/13 00:07:14;;;;;;;0.08;0.08;;;;;;;28.73;41.23;100237.00;5031447;28;20033;-58
2021/07/13 00:09:40;;;;;;;0.35;0.30;;;;;;;28.67;41.36;100228.84;5031166;28;20044;-58
2021/07/13 00:12:06;;;;;;;0.63;0.63;;;;;;;28.69;41.27;100235.72;5031347;28;20132;-58
2021/07/13 00:14:32;;;;;;;0.10;0.10;;;;;;;28.69;41.36;100229.53;5030980;28;20486;-57
2021/07/13 00:16:59;;;;;;;0.05;0.05;;;;;;;28.64;41.55;100227.34;5029945;28;20068;-59
2021/07/13 00:19:25;;;;;;;0.15;0.15;;;;;;;28.66;41.70;100236.13;5031094;28;20060;-56
2021/07/13 00:22:11;;;;;;;0.10;0.10;;;;;;;28.56;41.58;100214.06;5031185;28;20534;-58
2021/07/13 00:24:57;;;;;;;0.30;0.30;;;;;;;28.64;41.77;100221.16;5031175;28;20046;-58
2021/07/13 00:27:43;;;;;;;0.10;0.10;;;;;;;28.59;41.87;100212.84;5030754;28;20037;-58
2021/07/13 00:30:28;;;;;;;0.08;0.08;;;;;;;28.59;41.64;100219.06;5031113;28;20434;-58
2021/07/13 00:33:14;;;;;;;2.28;0.40;;;;;;;28.60;41.90;100226.06;5029916;28;20037;-58
2021/07/13 00:36:01;;;;;;;0.00;0.00;;;;;;;28.59;41.99;100224.44;5030583;28;20422;-58
2021/07/13 00:38:46;;;;;;;0.22;0.22;;;;;;;28.60;42.04;100227.94;5030535;28;20057;-57
2021/07/13 00:41:34;;;;;;;0.00;0.00;;;;;;;28.50;41.69;100209.44;5030909;28;20490;-57
2021/07/13 00:44:20;;;;;;;0.20;0.20;;;;;;;28.57;42.06;100223.75;5030566;28;20483;-57
2021/07/13 00:47:06;;;;;;;0.00;0.00;;;;;;;28.54;41.85;100220.63;5030785;28;20075;-57
2021/07/13 00:49:52;;;;;;;0.15;0.15;;;;;;;28.54;42.09;100226.84;5029412;28;20056;-58
2021/07/13 00:52:38;;;;;;;0.00;0.00;;;;;;;28.55;42.18;100227.69;5030311;28;20057;-58
2021/07/13 00:55:25;;;;;;;0.10;0.10;;;;;;;28.53;41.90;100238.63;5030349;28;20053;-57
2021/07/13 00:58:11;;;;;;;0.50;0.50;;;;;;;28.53;42.17;100237.78;5029947;28;20049;-57
2021/07/13 01:00:57;;;;;;;0.00;0.00;;;;;;;28.53;41.94;100229.72;5030287;28;20049;-57
2021/07/13 01:03:43;;;;;;;0.57;0.40;;;;;;;28.52;42.27;100234.28;5030011;28;20041;-57
2021/07/13 01:06:41;;;;;;;0.00;0.00;;;;;;;28.53;42.11;100235.94;5030365;28;20056;-56
2021/07/13 01:09:52;;;;;;;0.13;0.13;;;;;;;28.53;42.27;100244.00;5016883;28;20040;-56
2021/07/13 01:12:47;;;;;;;0.13;0.13;;;;;;;28.52;42.06;100236.13;5028917;28;20041;-58
2021/07/13 01:15:39;;;;;;;0.10;0.10;;;;;;;28.48;41.98;100226.78;5030094;28;20076;-57
2021/07/13 01:18:27;;;;;;;0.30;0.30;;;;;;;28.55;42.17;100238.44;5015551;28;20084;-59
2021/07/13 01:21:49;;;;;;;0.10;0.10;;;;;;;28.55;42.09;100241.94;5029161;28;20467;-57
2021/07/13 01:25:07;;;;;;;0.13;0.13;;;;;;;28.54;42.02;100242.97;5014364;28;20487;-58
2021/07/13 01:28:03;;;;;;;0.20;0.20;;;;;;;28.61;42.01;100238.50;5028828;28;20045;-57
2021/07/13 01:30:57;;;;;;;0.20;0.20;;;;;;;28.77;41.53;100238.28;5015025;28;20045;-57
2021/07/13 01:33:48;;;;;;;0.10;0.10;;;;;;;29.06;41.02;100241.88;5028577;28;20132;-57
2021/07/13 01:36:38;;;;;;;0.20;0.20;;;;;;;29.16;40.57;100218.97;5015442;28;20049;-58
2021/07/13 01:39:24;;;;;;;0.10;0.10;;;;;;;29.55;39.90;100247.25;5028862;28;20049;-58
2021/07/13 01:42:10;;;;;;;0.10;0.10;;;;;;;29.77;39.44;100240.75;5015141;28;20037;-58
2021/07/13 01:44:56;;;;;;;0.10;0.10;;;;;;;29.97;38.89;100229.06;5029672;28;20075;-58
2021/07/13 01:47:42;;;;;;;0.20;0.20;;;;;;;29.92;38.47;100182.22;5014746;28;20453;-58
2021/07/13 01:50:27;;;;;;;2.65;0.35;;;;;;;30.48;38.10;100229.50;5029763;28;20057;-58
2021/07/13 01:53:13;;;;;;;0.20;0.20;;;;;;;30.72;37.41;100229.97;5015097;28;20041;-58
2021/07/13 01:55:59;;;;;;;0.20;0.20;;;;;;;30.97;37.17;100242.66;5028466;28;20467;-58
2021/07/13 01:58:45;;;;;;;0.13;0.13;;;;;;;31.20;36.96;100227.94;5014786;28;20056;-58
2021/07/13 02:01:31;;;;;;;0.20;0.20;;;;;;;31.32;36.36;100218.16;5028742;28;20060;-58
2021/07/13 02:04:17;;;;;;;0.10;0.10;;;;;;;31.60;35.78;100234.97;5014975;28;20048;-57
2021/07/13 02:07:04;;;;;;;0.10;0.10;;;;;;;31.87;35.61;100239.25;5028631;28;20107;-59
2021/07/13 02:09:50;;;;;;;0.40;0.40;;;;;;;32.12;35.15;100235.88;5033431;28;20049;-58
2021/07/13 02:12:36;;;;;;;0.65;0.63;;;;;;;32.33;35.11;100238.28;5032604;28;20118;-59
2021/07/13 02:15:21;;;;;;;0.10;0.10;;;;;;;32.52;34.28;100245.47;5032450;28;20435;-58
2021/07/13 02:18:07;;;;;;;0.30;0.30;;;;;;;32.71;34.28;100239.13;5033291;28;20073;-57
2021/07/13 02:20:53;;;;;;;0.10;0.10;;;;;;;32.89;33.70;100241.91;5032230;28;20129;-57
2021/07/13 02:23:39;;;;;;;0.32;0.32;;;;;;;33.10;33.70;100243.44;5033022;28;20044;-58
2021/07/13 02:26:44;;;;;;;0.20;0.20;;;;;;;33.23;33.47;100234.38;5033278;28;20045;-56
2021/07/13 02:29:37;;;;;;;0.22;0.22;;;;;;;33.42;32.96;100225.22;5020740;28;20053;-57
2021/07/13 02:32:41;;;;;;;0.15;0.15;;;;;;;33.64;32.62;100245.44;5032088;28;20041;-58
2021/07/13 02:35:33;;;;;;;0.13;0.13;;;;;;;33.76;32.19;100237.41;5032867;28;20518;-58
2021/07/13 02:38:19;;;;;;;0.10;0.10;;;;;;;33.88;32.13;100224.75;5018785;28;20079;-58
2021/07/13 02:41:05;;;;;;;0.10;0.10;;;;;;;34.10;31.66;100233.28;5031983;28;20068;-58
2021/07/13 02:43:52;;;;;;;0.28;0.28;;;;;;;34.23;31.73;100239.34;5018139;28;20505;-57
2021/07/13 02:46:41;;;;;;;0.20;0.20;;;;;;;34.36;31.65;100233.75;5031949;28;20048;-57
2021/07/13 02:49:28;;;;;;;0.22;0.22;;;;;;;34.53;31.24;100239.38;5018585;28;20049;-57
2021/07/13 02:52:24;;;;;;;0.32;0.32;;;;;;;34.65;30.95;100229.44;5018208;28;20038;-57
2021/07/13 02:55:17;;;;;;;0.65;0.65;;;;;;;34.79;30.58;100239.00;5031835;28;20056;-57
2021/07/13 02:58:04;;;;;;;0.32;0.32;;;;;;;34.89;30.62;100236.56;5031423;28;20038;-57
2021/07/13 03:00:50;;;;;;;0.30;0.30;;;;;;;35.00;30.24;100230.34;5018011;28;20103;-57
2021/07/13 03:03:36;;;;;;;0.20;0.20;;;;;;;35.14;29.80;100230.16;5031635;28;20041;-58
2021/07/13 03:06:21;;;;;;;0.22;0.22;;;;;;;35.30;29.88;100235.72;5031668;28;20132;-58
2021/07/13 03:09:07;;;;;;;0.43;0.43;;;;;;;35.42;29.57;100235.69;5031400;28;20091;-58
2021/07/13 03:11:53;;;;;;;0.20;0.20;;;;;;;35.49;29.35;100222.81;5017568;28;20077;-57
2021/07/13 03:14:39;;;;;;;0.50;0.50;;;;;;;35.68;29.11;100227.06;5032485;28;20487;-57
2021/07/13 03:17:25;;;;;;;0.20;0.20;;;;;;;35.86;28.91;100234.28;5032358;28;20045;-57
2021/07/13 03:20:11;;;;;;;0.30;0.30;;;;;;;35.96;28.62;100235.28;5016741;28;20099;-58
2021/07/13 03:22:57;;;;;;;0.20;0.20;;;;;;;36.04;28.48;100234.91;5031104;28;20060;-58
2021/07/13 03:25:43;;;;;;;1.27;1.17;;;;;;;36.08;28.20;100229.03;5032016;28;20042;-58
2021/07/13 03:28:29;;;;;;;1.33;0.70;;;;;;;36.23;28.01;100240.19;5032133;28;20048;-58
2021/07/13 03:31:15;;;;;;;0.30;0.30;;;;;;;36.33;27.73;100235.78;5031237;28;20045;-58
2021/07/13 03:34:02;;;;;;;0.25;0.25;;;;;;;36.48;27.38;100236.09;5016868;28;20045;-57
2021/07/13 03:36:48;;;;;;;0.20;0.20;;;;;;;36.59;27.42;100237.13;5031497;28;20092;-58
2021/07/13 03:39:33;;;;;;;0.28;0.28;;;;;;;36.66;27.34;100237.78;5031985;28;20037;-58
2021/07/13 03:42:19;;;;;;;0.25;0.25;;;;;;;36.75;27.23;100241.75;5030874;28;20041;-58
2021/07/13 03:45:05;;;;;;;0.90;0.90;;;;;;;36.76;26.74;100228.97;5031530;28;20495;-58
2021/07/13 03:47:56;;;;;;;0.30;0.30;;;;;;;36.96;26.70;100246.50;5016900;28;20041;-57
2021/07/13 03:50:43;;;;;;;0.20;0.20;;;;;;;37.03;26.66;100235.47;5030752;28;20056;-58
2021/07/13 03:53:29;;;;;;;0.57;0.52;;;;;;;37.09;26.57;100222.75;5031605;28;20184;-58
2021/07/13 03:56:15;;;;;;;0.28;0.28;;;;;;;37.22;26.16;100239.59;5031569;28;20107;-58
2021/07/13 03:59:01;;;;;;;0.20;0.20;;;;;;;37.32;26.19;100242.47;5031225;28;20143;-58
2021/07/13 04:01:47;;;;;;;0.15;0.15;;;;;;;37.43;26.05;100241.56;5030403;28;20073;-58
2021/07/13 04:04:33;;;;;;;0.10;0.10;;;;;;;37.46;25.74;100234.81;5031497;28;20041;-58
2021/07/13 04:07:19;;;;;;;0.82;0.82;;;;;;;37.50;26.10;100227.78;5031564;28;20407;-58
2021/07/13 04:10:06;;;;;;;0.20;0.20;;;;;;;37.66;25.84;100226.09;5030084;28;20045;-58
2021/07/13 04:12:52;;;;;;;0.82;0.82;;;;;;;37.71;25.59;100237.06;5031294;28;20053;-59
2021/07/13 04:15:37;;;;;;;0.50;0.50;;;;;;;37.78;25.47;100232.25;5031272;28;20136;-58
2021/07/13 04:18:23;;;;;;;0.30;0.30;;;;;;;37.86;25.14;100226.38;5031138;28;20041;-58
2021/07/13 04:21:09;;;;;;;3.47;1.60;;;;;;;37.99;24.95;100228.75;5031022;28;20067;-58
2021/07/13 04:23:56;;;;;;;0.40;0.40;;;;;;;38.11;24.96;100231.31;5030989;28;20045;-58
2021/07/13 04:26:41;;;;;;;0.20;0.20;;;;;;;38.12;25.21;100233.00;5031246;28;20049;-58
2021/07/13 04:29:28;;;;;;;0.32;0.32;;;;;;;38.26;25.13;100234.22;5030875;28;20048;-58
2021/07/13 04:32:13;;;;;;;0.32;0.32;;;;;;;38.30;25.23;100227.19;5031115;28;20446;-58
2021/07/13 04:34:59;;;;;;;2.20;0.30;;;;;;;38.35;24.69;100224.50;5030448;28;20118;-58
2021/07/13 04:37:45;;;;;;;0.52;0.52;;;;;;;38.46;25.02;100229.84;5030760;28;20069;-58
2021/07/13 04:40:31;;;;;;;0.20;0.20;;;;;;;38.51;24.76;100229.91;5029796;28;20041;-58
2021/07/13 04:43:17;;;;;;;0.47;0.47;;;;;;;38.57;24.63;100236.25;5030847;28;20099;-59
2021/07/13 04:46:03;;;;;;;0.32;0.32;;;;;;;38.64;24.38;100233.28;5030395;28;20041;-59
2021/07/13 04:48:49;;;;;;;0.30;0.30;;;;;;;38.67;24.11;100228.16;5030391;28;20124;-58
2021/07/13 04:51:35;;;;;;;0.30;0.30;;;;;;;38.70;24.03;100230.34;5030724;28;20049;-58
2021/07/13 04:54:21;;;;;;;0.40;0.40;;;;;;;38.77;23.97;100224.69;5029453;28;20045;-59
2021/07/13 04:57:06;;;;;;;0.47;0.47;;;;;;;38.80;24.33;100225.00;5030288;28;20049;-58
2021/07/13 04:59:53;;;;;;;0.30;0.30;;;;;;;38.86;24.08;100213.03;5029313;28;20046;-54
2021/07/13 05:02:39;;;;;;;0.20;0.20;;;;;;;38.89;24.58;100214.44;5030519;28;20060;-55
2021/07/13 05:05:25;;;;;;;0.45;0.45;;;;;;;38.89;24.06;100215.25;5029162;28;20593;-53
2021/07/13 05:08:10;;;;;;;0.45;0.45;;;;;;;38.93;24.20;100219.13;5030084;28;20131;-55
2021/07/13 05:10:56;;;;;;;0.30;0.30;;;;;;;38.73;24.46;100180.69;5030227;28;20073;-54
2021/07/13 05:13:42;;;;;;;0.32;0.32;;;;;;;38.89;24.11;100212.53;5030217;28;20037;-52
2021/07/13 05:16:28;;;;;;;0.20;0.20;;;;;;;38.96;24.59;100213.13;5029973;28;20053;-54
2021/07/13 05:19:15;;;;;;;0.20;0.20;;;;;;;38.93;23.98;100208.19;5030137;28;20049;-53
2021/07/13 05:22:03;;;;;;;0.43;0.43;;;;;;;38.95;23.97;100216.94;5029973;28;20056;-52
2021/07/13 05:24:49;;;;;;;0.35;0.35;;;;;;;38.99;24.20;100211.78;5030056;28;20075;-53
2021/07/13 05:27:37;;;;;;;0.10;0.10;;;;;;;39.01;24.02;100221.34;5029942;28;20605;-51
2021/07/13 05:30:23;;;;;;;1.10;0.73;;;;;;;39.01;24.43;100215.88;5029873;28;20034;-53
2021/07/13 05:33:09;;;;;;;0.30;0.30;;;;;;;39.01;24.00;100215.88;5028850;28;20075;-52
2021/07/13 05:35:55;;;;;;;0.15;0.15;;;;;;;39.08;23.83;100221.97;5029471;28;20068;-53
2021/07/13 05:38:41;;;;;;;0.30;0.30;;;;;;;39.04;23.82;100212.63;5029899;28;20053;-53
2021/07/13 05:41:27;;;;;;;0.10;0.10;;;;;;;39.07;23.76;100220.31;5029788;28;20053;-56
2021/07/13 05:44:12;;;;;;;0.30;0.30;;;;;;;39.11;23.90;100215.13;5029113;28;20050;-53
2021/07/13 05:46:39;;;;;;;1.35;1.05;;;;;;;39.17;23.63;100218.75;5012258;28;20037;-53
2021/07/13 05:49:05;;;;;;;0.22;0.22;;;;;;;39.17;24.00;100219.56;5029201;28;20124;-54
2021/07/13 05:51:31;;;;;;;0.10;0.10;;;;;;;39.14;23.69;100211.88;5028370;28;20073;-53
2021/07/13 05:53:58;;;;;;;0.43;0.22;;;;;;;39.18;23.89;100214.91;5029395;28;20084;-49
2021/07/13 05:56:25;;;;;;;0.22;0.22;;;;;;;39.14;24.19;100214.63;5029321;28;20049;-51
2021/07/13 05:58:51;;;;;;;0.60;0.60;;;;;;;39.13;23.69;100214.88;5029673;28;20543;-52
2021/07/13 06:01:17;;;;;;;0.20;0.20;;;;;;;39.08;24.22;100208.28;5029727;28;20125;-55
2021/07/13 06:03:43;;;;;;;0.30;0.30;;;;;;;39.11;23.77;100208.84;5028165;28;20478;-53
2021/07/13 06:06:09;;;;;;;0.22;0.22;;;;;;;39.06;23.91;100201.44;5029248;28;20041;-52
2021/07/13 06:08:35;;;;;;;0.17;0.17;;;;;;;39.17;23.52;100208.63;5029389;28;20400;-53
2021/07/13 06:11:01;;;;;;;0.10;0.10;;;;;;;39.16;23.29;100208.91;5029222;28;20041;-54
2021/07/13 06:13:27;;;;;;;0.30;0.30;;;;;;;39.15;23.49;100215.44;5029307;28;20056;-55
2021/07/13 06:15:53;;;;;;;0.20;0.20;;;;;;;39.22;23.39;100210.56;5029265;28;20049;-53
2021/07/13 06:18:19;;;;;;;0.17;0.17;;;;;;;39.23;23.54;100209.50;5029514;28;20038;-54
2021/07/13 06:20:45;;;;;;;0.13;0.13;;;;;;;39.26;23.33;100207.09;5029368;28;20072;-55
2021/07/13 06:23:11;;;;;;;0.13;0.13;;;;;;;39.34;23.04;100203.03;5029128;28;20541;-55
2021/07/13 06:25:37;;;;;;;0.10;0.10;;;;;;;39.38;22.93;100206.88;5029440;28;20064;-55
2021/07/13 06:28:04;;;;;;;0.10;0.10;;;;;;;39.43;22.84;100204.19;5027861;28;20550;-55
2021/07/13 06:30:30;;;;;;;0.10;0.10;;;;;;;39.48;22.88;100209.69;5029241;28;20499;-55
2021/07/13 06:32:55;;;;;;;0.17;0.17;;;;;;;39.74;22.78;100202.44;5029247;28;20088;-55
2021/07/13 06:35:21;;;;;;;0.17;0.17;;;;;;;40.87;21.28;100204.09;5028969;28;20053;-55
2021/07/13 06:37:47;;;;;;;0.10;0.10;;;;;;;44.64;17.55;100208.97;5029188;28;20038;-54
2021/07/13 06:40:16;;;;;;;0.57;0.57;;;;;;;48.45;13.98;100206.78;5029078;28;20045;-55
2021/07/13 06:42:42;;;;;;;0.60;0.60;;;;;;;50.82;11.92;100210.22;5029370;28;20519;-55
2021/07/13 06:45:09;;;;;;;0.52;0.52;;;;;;;51.99;10.88;100209.38;5028775;28;20491;-55
2021/07/13 06:47:34;;;;;;;0.80;0.80;;;;;;;52.63;10.36;100217.66;5027842;28;20079;-55
2021/07/13 06:50:01;;;;;;;0.40;0.40;;;;;;;52.89;10.38;100209.66;5028897;28;20106;-56
2021/07/13 06:52:27;;;;;;;0.30;0.30;;;;;;;52.96;10.41;100204.25;5028981;28;20049;-53
2021/07/13 06:54:53;;;;;;;0.40;0.40;;;;;;;52.94;10.06;100206.59;5030157;28;20560;-55
2021/07/13 06:57:21;;;;;;;0.35;0.35;;;;;;;52.72;10.03;100207.19;5031178;28;20050;-54
2021/07/13 06:59:47;;;;;;;0.20;0.20;;;;;;;51.94;10.75;100206.81;5032633;28;20041;-55
2021/07/13 07:02:13;;;;;;;0.25;0.25;;;;;;;49.63;12.11;100191.28;5032346;28;20038;-52
2021/07/13 07:04:40;;;;;;;0.40;0.40;;;;;;;46.14;15.07;100195.38;5032408;28;20052;-55
2021/07/13 07:07:06;;;;;;;0.40;0.40;;;;;;;43.49;17.18;100203.88;5032389;28;20045;-55
2021/07/13 07:09:32;;;;;;;0.10;0.10;;;;;;;41.76;19.24;100192.44;5031218;28;20053;-54
2021/07/13 07:11:58;;;;;;;0.32;0.32;;;;;;;40.78;20.06;100191.22;5031166;28;20044;-55
2021/07/13 07:14:23;;;;;;;0.13;0.13;;;;;;;40.07;21.27;100191.91;5032223;28;20037;-54
2021/07/13 07:16:49;;;;;;;0.40;0.40;;;;;;;39.55;21.75;100193.84;5032419;28;20045;-55
2021/07/13 07:19:15;;;;;;;0.10;0.10;;;;;;;39.14;22.22;100190.00;5032049;28;20052;-55
2021/07/13 07:21:41;;;;;;;0.17;0.17;;;;;;;38.84;22.88;100189.81;5032204;28;20052;-54
2021/07/13 07:24:07;;;;;;;0.40;0.40;;;;;;;38.56;22.96;100185.44;5031865;28;20045;-56
2021/07/13 07:26:33;;;;;;;0.20;0.20;;;;;;;38.33;23.51;100183.81;5030716;28;20040;-54
2021/07/13 07:28:59;;;;;;;0.00;0.00;;;;;;;38.20;23.49;100189.69;5030611;28;20045;-55
2021/07/13 07:31:25;;;;;;;0.10;0.10;;;;;;;38.04;23.67;100183.25;5032007;28;20037;-56
2021/07/13 07:33:51;;;;;;;0.10;0.10;;;;;;;37.87;24.03;100187.91;5030706;28;20045;-53
2021/07/13 07:36:17;;;;;;;0.20;0.20;;;;;;;37.76;24.19;100186.16;5030180;28;20102;-56
2021/07/13 07:38:43;;;;;;;0.10;0.10;;;;;;;37.66;24.24;100183.31;5031915;28;20124;-55
2021/07/13 07:41:09;;;;;;;0.10;0.10;;;;;;;37.57;24.50;100182.06;5030621;28;20041;-55
2021/07/13 07:43:35;;;;;;;0.13;0.13;;;;;;;37.38;24.27;100175.25;5030937;28;20041;-56
2021/07/13 07:46:01;;;;;;;0.38;0.38;;;;;;;37.29;24.31;100179.47;5031787;28;20087;-56
2021/07/13 07:48:26;;;;;;;0.10;0.10;;;;;;;37.23;24.42;100181.31;5030617;28;20084;-53
2021/07/13 07:50:52;;;;;;;0.10;0.10;;;;;;;37.12;24.62;100187.66;5031655;28;20079;-56
2021/07/13 07:53:18;;;;;;;0.10;0.10;;;;;;;37.07;25.09;100194.94;5031578;28;20495;-55
2021/07/13 07:55:44;;;;;;;0.00;0.00;;;;;;;36.93;24.69;100181.63;5031574;28;20069;-55
2021/07/13 07:58:10;;;;;;;0.17;0.17;;;;;;;36.85;24.98;100184.75;5031335;28;20053;-52
2021/07/13 08:00:36;;;;;;;0.10;0.10;;;;;;;36.75;25.04;100183.78;5031451;28;20038;-55
2021/07/13 08:03:02;;;;;;;0.20;0.20;;;;;;;36.69;25.41;100185.59;5030102;28;20057;-55
2021/07/13 08:05:30;;;;;;;0.50;0.50;;;;;;;36.55;25.58;100185.06;5030977;28;20133;-54
2021/07/13 08:07:56;;;;;;;0.10;0.10;;;;;;;36.46;25.62;100174.81;5031384;28;20072;-53
2021/07/13 08:10:22;;;;;;;0.00;0.00;;;;;;;36.37;25.55;100181.72;5031028;28;20488;-55
2021/07/13 08:12:48;;;;;;;0.10;0.10;;;;;;;36.28;26.02;100175.03;5031299;28;20048;-55
2021/07/13 08:15:14;;;;;;;0.10;0.10;;;;;;;36.14;25.83;100154.63;5030973;28;20048;-56
2021/07/13 08:17:41;;;;;;;0.47;0.32;;;;;;;36.13;25.97;100163.88;5031161;28;20053;-55
2021/07/13 08:20:09;;;;;;;2.90;1.75;;;;;;;36.04;26.01;100166.09;5029641;28;20038;-54
2021/07/13 08:22:35;;;;;;;0.10;0.10;;;;;;;35.97;26.21;100160.81;5029937;28;20408;-57
2021/07/13 08:25:02;;;;;;;0.10;0.10;;;;;;;35.92;26.25;100157.19;5030833;28;20255;-55
2021/07/13 08:27:29;;;;;;;0.10;0.10;;;;;;;35.78;26.39;100156.63;5031154;28;20107;-56
2021/07/13 08:29:56;;;;;;;1.00;0.55;;;;;;;35.73;26.49;100159.25;5029952;28;20499;-56
2021/07/13 08:32:21;;;;;;;0.10;0.10;;;;;;;35.64;26.29;100147.09;5029508;28;20041;-56
2021/07/13 08:34:48;;;;;;;0.20;0.20;;;;;;;35.55;26.69;100146.59;5030804;28;20053;-57
2021/07/13 08:37:14;;;;;;;0.00;0.00;;;;;;;35.51;26.82;100150.88;5030488;28;20160;-56
2021/07/13 08:39:40;;;;;;;0.03;0.03;;;;;;;35.40;26.69;100148.19;5030781;28;20045;-55
2021/07/13 08:42:06;;;;;;;0.15;0.15;;;;;;;35.25;26.66;100134.25;5030586;28;20092;-54
2021/07/13 08:44:33;;;;;;;0.10;0.10;;;;;;;35.22;27.02;100143.69;5029361;28;20079;-55
2021/07/13 08:46:59;;;;;;;0.10;0.10;;;;;;;35.16;27.05;100146.53;5030717;28;20045;-53
2021/07/13 08:49:25;;;;;;;0.00;0.00;;;;;;;35.08;27.27;100144.16;5030223;28;20495;-56
2021/07/13 08:51:51;;;;;;;0.00;0.00;;;;;;;35.04;27.15;100144.63;5030721;28;20475;-55
2021/07/13 08:54:17;;;;;;;0.00;0.00;;;;;;;34.96;27.15;100136.84;5030242;28;20087;-54
2021/07/13 08:56:43;;;;;;;0.50;0.50;;;;;;;34.89;27.27;100143.44;5030414;28;20363;-55
2021/07/13 08:59:09;;;;;;;0.17;0.17;;;;;;;34.83;27.69;100126.22;5030251;28;20128;-56
2021/07/13 09:01:35;;;;;;;0.00;0.00;;;;;;;34.82;27.54;100135.41;5030394;28;20065;-55
2021/07/13 09:04:06;;;;;;;0.05;0.05;;;;;;;34.76;27.59;100139.06;5030402;28;20048;-53
2021/07/13 09:06:53;;;;;;;0.00;0.00;;;;;;;34.65;27.48;100129.03;5030315;28;20095;-55
2021/07/13 09:09:29;;;;;;;0.10;0.10;;;;;;;34.68;27.95;100138.59;5030027;28;20049;-54
2021/07/13 09:12:17;;;;;;;0.30;0.30;;;;;;;34.65;27.90;100139.06;5030399;28;20042;-56
2021/07/13 09:14:50;;;;;;;0.00;0.00;;;;;;;34.58;27.69;100139.13;5028883;28;20506;-55
2021/07/13 09:17:40;;;;;;;0.00;0.00;;;;;;;34.55;27.80;100134.97;5029211;28;20535;-56
2021/07/13 09:20:21;;;;;;;0.10;0.10;;;;;;;34.51;27.39;100128.38;5029911;28;20277;-58
2021/07/13 09:23:06;;;;;;;0.00;0.00;;;;;;;34.48;27.93;100136.16;5028737;28;20056;-58
2021/07/13 09:25:34;;;;;;;0.10;0.10;;;;;;;34.45;28.00;100140.19;5029867;28;20038;-58
2021/07/13 09:28:14;;;;;;;0.00;0.00;;;;;;;34.39;27.89;100126.72;5030063;28;20076;-58
2021/07/13 09:30:56;;;;;;;0.00;0.00;;;;;;;34.39;27.96;100129.44;5029939;28;20568;-57
2021/07/13 09:33:23;;;;;;;0.00;0.00;;;;;;;34.36;28.14;100133.41;5029786;28;20495;-58
2021/07/13 09:36:08;;;;;;;0.10;0.10;;;;;;;34.35;27.87;100136.38;5029597;28;20494;-57
2021/07/13 09:38:40;;;;;;;0.10;0.10;;;;;;;34.28;27.99;100124.78;5029732;28;20348;-58
2021/07/13 09:41:16;;;;;;;0.00;0.00;;;;;;;34.27;28.01;100121.25;5028136;28;20125;-58
2021/07/13 09:43:59;;;;;;;0.10;0.10;;;;;;;34.27;28.38;100121.25;5029781;28;20057;-58
2021/07/13 09:46:30;;;;;;;0.20;0.20;;;;;;;34.27;28.27;100120.41;5028387;28;20041;-58
2021/07/13 09:49:15;;;;;;;0.10;0.10;;;;;;;34.24;27.99;100116.28;5030075;28;20046;-58
2021/07/13 09:51:46;;;;;;;0.10;0.10;;;;;;;34.15;27.87;100106.00;5029777;28;20057;-59
2021/07/13 09:54:29;;;;;;;0.30;0.30;;;;;;;34.19;28.26;100112.63;5029313;28;20048;-60
2021/07/13 09:56:55;;;;;;;0.10;0.10;;;;;;;34.17;28.33;100120.16;5029618;28;20053;-55
2021/07/13 09:59:22;;;;;;;0.10;0.10;;;;;;;34.20;28.20;100128.66;5029208;28;20140;-55
2021/07/13 10:01:49;;;;;;;0.10;0.10;;;;;;;34.17;27.91;100120.97;5029281;28;20045;-55
2021/07/13 10:04:16;;;;;;;0.10;0.10;;;;;;;34.16;27.97;100121.22;5029017;28;20084;-53
2021/07/13 10:06:42;;;;;;;0.05;0.05;;;;;;;34.14;27.83;100116.03;5029599;28;20038;-53
2021/07/13 10:09:11;;;;;;;0.03;0.03;;;;;;;34.14;28.02;100112.47;5029307;28;20041;-54
2021/07/13 10:11:38;;;;;;;;;;;;;;;34.15;28.05;100111.44;5028650;28;20041;-53
2021/07/13 10:14:04;;;;;;;0.10;0.10;;;;;;;34.10;28.06;100103.13;5029461;28;19967;-54
2021/07/13 10:16:30;;;;;;;0.00;0.00;;;;;;;34.11;28.35;100104.78;5027774;28;20396;-54
2021/07/13 10:18:56;;;;;;;0.00;0.00;;;;;;;34.00;28.13;100081.97;5028287;28;20044;-55
2021/07/13 10:21:24;;;;;;;0.15;0.15;;;;;;;34.10;28.10;100103.13;5027871;28;20040;-55
2021/07/13 10:23:50;;;;;;;0.00;0.00;;;;;;;34.03;28.14;100093.19;5011853;28;20128;-55
2021/07/13 10:27:03;;;;;;;0.20;0.20;;;;;;;34.02;28.17;100094.28;5027877;28;20045;-54
2021/07/13 10:29:32;;;;;;;0.00;0.00;;;;;;;34.07;28.24;100098.97;5030825;28;20053;-56
2021/07/13 10:31:59;;;;;;;0.00;0.00;;;;;;;34.01;28.01;100095.31;5033204;28;20037;-54
2021/07/13 10:34:56;;;;;;;0.03;0.03;;;;;;;34.06;28.35;100104.66;5032552;28;20144;-54
2021/07/13 10:37:40;;;;;;;0.10;0.10;;;;;;;34.06;28.15;100107.38;5031394;28;20060;-54
2021/07/13 10:40:08;;;;;;;0.00;0.00;;;;;;;34.04;27.84;100096.75;5033137;28;20653;-55
2021/07/13 10:42:40;;;;;;;0.10;0.10;;;;;;;34.01;27.72;100092.63;5032992;28;20041;-54
2021/07/13 10:45:20;;;;;;;0.10;0.10;;;;;;;34.01;28.32;100095.31;5033203;28;20037;-53
2021/07/13 10:48:03;;;;;;;0.47;0.15;;;;;;;33.98;27.99;100095.78;5033119;28;20133;-53
2021/07/13 10:50:30;;;;;;;0.00;0.00;;;;;;;34.00;28.26;100099.09;5032512;28;20052;-54
2021/07/13 10:53:13;;;;;;;0.10;0.10;;;;;;;33.98;28.24;100094.94;5032809;28;20044;-54
2021/07/13 10:56:02;;;;;;;0.10;0.10;;;;;;;33.97;28.08;100094.13;5032508;28;20045;-53
2021/07/13 10:58:34;;;;;;;0.10;0.10;;;;;;;33.91;28.05;100081.50;5032501;28;20052;-54
2021/07/13 11:01:12;;;;;;;0.00;0.00;;;;;;;33.95;28.54;100095.41;5032615;28;20041;-55
2021/07/13 11:03:42;;;;;;;0.10;0.10;;;;;;;33.97;28.53;100093.28;5031284;28;20095;-54
2021/07/13 11:06:18;;;;;;;0.10;0.10;;;;;;;33.95;28.49;100090.00;5032499;28;20124;-53
2021/07/13 11:08:44;;;;;;;0.20;0.20;;;;;;;33.94;28.44;100094.59;5032455;28;20056;-51
2021/07/13 11:11:14;;;;;;;0.10;0.10;;;;;;;33.92;28.06;100091.28;5032184;28;20050;-54
2021/07/13 11:13:40;;;;;;;0.05;0.05;;;;;;;33.92;28.03;100096.72;5032657;28;20415;-54
2021/07/13 11:16:06;;;;;;;0.17;0.17;;;;;;;33.85;28.35;100070.75;5032319;28;20049;-52
2021/07/13 11:18:35;;;;;;;0.05;0.05;;;;;;;33.77;28.34;100044.78;5032233;28;20474;-55
2021/07/13 11:21:20;;;;;;;0.10;0.10;;;;;;;33.91;28.40;100077.94;5032201;28;20045;-55
2021/07/13 11:24:08;;;;;;;0.00;0.00;;;;;;;33.91;28.23;100077.94;5032183;28;20068;-53
2021/07/13 11:26:37;;;;;;;0.20;0.20;;;;;;;33.80;28.14;100066.00;5031225;28;20068;-55
2021/07/13 11:29:04;;;;;;;0.10;0.10;;;;;;;33.89;28.32;100077.38;5030861;28;20120;-55
2021/07/13 11:31:35;;;;;;;0.20;0.20;;;;;;;33.89;28.52;100069.25;5031705;28;20044;-54
2021/07/13 11:34:06;;;;;;;0.00;0.00;;;;;;;33.88;28.50;100073.00;5032049;28;20056;-54
2021/07/13 11:36:40;;;;;;;0.10;0.10;;;;;;;33.87;28.14;100074.88;5031524;28;20091;-51
2021/07/13 11:39:29;;;;;;;0.00;0.00;;;;;;;33.87;28.40;100068.63;5031983;28;20103;-54
2021/07/13 11:41:56;;;;;;;0.10;0.10;;;;;;;33.87;28.11;100072.16;5031225;28;20495;-53
2021/07/13 11:44:22;;;;;;;0.00;0.00;;;;;;;33.87;28.04;100072.16;5031674;28;20133;-51
2021/07/13 11:46:50;;;;;;;0.20;0.20;;;;;;;33.87;28.52;100066.75;5014026;28;20044;-55
2021/07/13 11:49:18;;;;;;;0.00;0.00;;;;;;;33.86;28.60;100067.81;5030389;28;20068;-53
2021/07/13 11:51:50;;;;;;;0.00;0.00;;;;;;;33.86;28.58;100069.69;5030457;28;20111;-52
2021/07/13 11:54:17;;;;;;;0.38;0.38;;;;;;;33.85;28.33;100063.44;5031551;28;20121;-56
2021/07/13 11:56:45;;;;;;;0.05;0.05;;;;;;;33.84;28.64;100061.78;5031396;28;20518;-53
2021/07/13 11:59:13;;;;;;;0.20;0.20;;;;;;;33.83;28.57;100052.03;5031499;28;20045;-50
2021/07/13 12:01:38;;;;;;;0.10;0.10;;;;;;;33.84;28.34;100050.94;5031230;28;20072;-51
2021/07/13 12:04:06;;;;;;;0.00;0.00;;;;;;;33.83;28.45;100046.59;5031455;28;20069;-54
2021/07/13 12:06:33;;;;;;;0.57;0.57;;;;;;;33.81;28.27;100045.16;5031196;28;20128;-54
2021/07/13 12:09:00;;;;;;;0.10;0.10;;;;;;;33.81;28.58;100046.00;5031536;28;20041;-53
2021/07/13 12:11:30;;;;;;;0.20;0.20;;;;;;;33.81;28.82;100040.56;5029775;28;20045;-55